sensor_id;sensor_type;location;lat;lon;timestamp;P1;durP1;ratioP1;P2;durP2;ratioP2
43857;SDS011;29507;51.284;5.758;2022-10-31T00:00:57;20.23;;;9.13;;
43857;SDS011;29507;51.284;5.758;2022-10-31T00:03:23;19.52;;;9.10;;
43857;SDS011;29507;51.284;5.758;2022-10-31T00:05:49;17.67;;;9.18;;
43857;SDS011;29507;51.284;5.758;2022-10-31T00:08:16;20.02;;;10.38;;
43857;SDS011;29507;51.284;5.758;2022-10-31T00:10:42;18.35;;;9.25;;
43857;SDS011;29507;51.284;5.758;2022-10-31T00:13:09;17.45;;;9.52;;
43857;SDS011;29507;51.284;5.758;2022-10-31T00:15:36;19.27;;;10.05;;
43857;SDS011;29507;51.284;5.758;2022-10-31T00:18:05;22.58;;;10.82;;
43857;SDS011;29507;51.284;5.758;2022-10-31T00:20:32;20.55;;;10.02;;
43857;SDS011;29507;51.284;5.758;2022-10-31T00:22:58;19.17;;;10.85;;
43857;SDS011;29507;51.284;5.758;2022-10-31T00:25:25;21.50;;;11.05;;
43857;SDS011;29507;51.284;5.758;2022-10-31T00:27:51;18.58;;;9.07;;
43857;SDS011;29507;51.284;5.758;2022-10-31T00:30:17;20.63;;;10.60;;
43857;SDS011;29507;51.284;5.758;2022-10-31T00:32:43;17.00;;;10.20;;
43857;SDS011;29507;51.284;5.758;2022-10-31T00:35:08;23.50;;;10.60;;
43857;SDS011;29507;51.284;5.758;2022-10-31T00:37:34;21.10;;;9.80;;
43857;SDS011;29507;51.284;5.758;2022-10-31T00:39:59;20.33;;;9.07;;
43857;SDS011;29507;51.284;5.758;2022-10-31T00:42:25;18.38;;;9.82;;
43857;SDS011;29507;51.284;5.758;2022-10-31T00:44:51;20.55;;;9.45;;
43857;SDS011;29507;51.284;5.758;2022-10-31T00:47:16;21.42;;;9.63;;
43857;SDS011;29507;51.284;5.758;2022-10-31T00:49:42;20.05;;;10.10;;
43857;SDS011;29507;51.284;5.758;2022-10-31T00:52:07;20.58;;;11.20;;
43857;SDS011;29507;51.284;5.758;2022-10-31T00:54:33;21.42;;;10.50;;
43857;SDS011;29507;51.284;5.758;2022-10-31T00:56:58;20.00;;;9.85;;
43857;SDS011;29507;51.284;5.758;2022-10-31T00:59:24;14.90;;;8.80;;
43857;SDS011;29507;51.284;5.758;2022-10-31T01:01:49;19.05;;;9.40;;
43857;SDS011;29507;51.284;5.758;2022-10-31T01:04:15;23.02;;;11.05;;
43857;SDS011;29507;51.284;5.758;2022-10-31T01:06:41;18.73;;;9.77;;
43857;SDS011;29507;51.284;5.758;2022-10-31T01:09:07;18.38;;;10.00;;
43857;SDS011;29507;51.284;5.758;2022-10-31T01:11:32;17.83;;;9.68;;
43857;SDS011;29507;51.284;5.758;2022-10-31T01:13:58;19.50;;;9.80;;
43857;SDS011;29507;51.284;5.758;2022-10-31T01:16:25;19.55;;;9.80;;
43857;SDS011;29507;51.284;5.758;2022-10-31T01:18:51;17.65;;;10.52;;
43857;SDS011;29507;51.284;5.758;2022-10-31T01:21:19;25.30;;;11.55;;
43857;SDS011;29507;51.284;5.758;2022-10-31T01:23:47;20.65;;;10.23;;
43857;SDS011;29507;51.284;5.758;2022-10-31T01:28:44;23.75;;;12.13;;
43857;SDS011;29507;51.284;5.758;2022-10-31T01:31:15;22.58;;;10.93;;
43857;SDS011;29507;51.284;5.758;2022-10-31T01:33:42;23.55;;;12.05;;
43857;SDS011;29507;51.284;5.758;2022-10-31T01:36:16;22.75;;;10.82;;
43857;SDS011;29507;51.284;5.758;2022-10-31T01:38:44;19.00;;;11.30;;
43857;SDS011;29507;51.284;5.758;2022-10-31T01:41:11;27.35;;;12.77;;
43857;SDS011;29507;51.284;5.758;2022-10-31T01:43:42;25.02;;;11.98;;
43857;SDS011;29507;51.284;5.758;2022-10-31T01:46:07;26.17;;;11.63;;
43857;SDS011;29507;51.284;5.758;2022-10-31T01:48:33;21.70;;;10.73;;
43857;SDS011;29507;51.284;5.758;2022-10-31T01:50:59;20.23;;;10.90;;
43857;SDS011;29507;51.284;5.758;2022-10-31T01:53:24;20.58;;;11.30;;
43857;SDS011;29507;51.284;5.758;2022-10-31T01:55:50;24.60;;;12.00;;
43857;SDS011;29507;51.284;5.758;2022-10-31T01:58:18;25.65;;;11.88;;
43857;SDS011;29507;51.284;5.758;2022-10-31T02:00:48;27.42;;;10.88;;
43857;SDS011;29507;51.284;5.758;2022-10-31T02:03:18;18.58;;;10.13;;
43857;SDS011;29507;51.284;5.758;2022-10-31T02:05:46;27.35;;;11.93;;
43857;SDS011;29507;51.284;5.758;2022-10-31T02:08:20;26.42;;;12.07;;
43857;SDS011;29507;51.284;5.758;2022-10-31T02:10:51;25.85;;;13.27;;
43857;SDS011;29507;51.284;5.758;2022-10-31T02:13:17;23.20;;;12.38;;
43857;SDS011;29507;51.284;5.758;2022-10-31T02:15:45;23.98;;;10.77;;
43857;SDS011;29507;51.284;5.758;2022-10-31T02:18:13;23.05;;;10.93;;
43857;SDS011;29507;51.284;5.758;2022-10-31T02:34:40;22.83;;;11.30;;
43857;SDS011;29507;51.284;5.758;2022-10-31T02:37:14;20.88;;;11.13;;
43857;SDS011;29507;51.284;5.758;2022-10-31T02:39:53;21.60;;;10.48;;
43857;SDS011;29507;51.284;5.758;2022-10-31T02:42:43;30.58;;;12.50;;
43857;SDS011;29507;51.284;5.758;2022-10-31T02:45:26;22.92;;;11.10;;
43857;SDS011;29507;51.284;5.758;2022-10-31T02:48:00;24.98;;;11.80;;
43857;SDS011;29507;51.284;5.758;2022-10-31T02:50:33;21.85;;;11.25;;
43857;SDS011;29507;51.284;5.758;2022-10-31T02:53:03;23.30;;;11.20;;
43857;SDS011;29507;51.284;5.758;2022-10-31T02:58:01;31.88;;;12.65;;
43857;SDS011;29507;51.284;5.758;2022-10-31T03:00:28;24.92;;;12.15;;
43857;SDS011;29507;51.284;5.758;2022-10-31T03:03:10;24.10;;;12.00;;
43857;SDS011;29507;51.284;5.758;2022-10-31T03:08:27;29.08;;;13.38;;
43857;SDS011;29507;51.284;5.758;2022-10-31T03:11:03;35.45;;;12.77;;
43857;SDS011;29507;51.284;5.758;2022-10-31T03:16:08;36.00;;;14.25;;
43857;SDS011;29507;51.284;5.758;2022-10-31T03:23:54;31.27;;;14.20;;
43857;SDS011;29507;51.284;5.758;2022-10-31T03:26:22;30.65;;;13.30;;
43857;SDS011;29507;51.284;5.758;2022-10-31T03:28:51;30.83;;;14.82;;
43857;SDS011;29507;51.284;5.758;2022-10-31T03:31:19;30.23;;;13.77;;
43857;SDS011;29507;51.284;5.758;2022-10-31T03:33:48;42.70;;;16.25;;
43857;SDS011;29507;51.284;5.758;2022-10-31T03:36:16;32.45;;;14.35;;
43857;SDS011;29507;51.284;5.758;2022-10-31T03:38:42;31.50;;;14.00;;
43857;SDS011;29507;51.284;5.758;2022-10-31T03:41:12;37.15;;;14.55;;
43857;SDS011;29507;51.284;5.758;2022-10-31T03:43:43;30.77;;;13.98;;
43857;SDS011;29507;51.284;5.758;2022-10-31T03:46:17;35.60;;;14.60;;
43857;SDS011;29507;51.284;5.758;2022-10-31T03:48:43;38.22;;;14.15;;
43857;SDS011;29507;51.284;5.758;2022-10-31T03:53:45;31.23;;;12.73;;
43857;SDS011;29507;51.284;5.758;2022-10-31T03:56:33;23.45;;;12.45;;
43857;SDS011;29507;51.284;5.758;2022-10-31T03:59:04;32.55;;;13.40;;
43857;SDS011;29507;51.284;5.758;2022-10-31T04:04:20;25.75;;;12.30;;
43857;SDS011;29507;51.284;5.758;2022-10-31T04:06:46;27.52;;;13.40;;
43857;SDS011;29507;51.284;5.758;2022-10-31T04:09:14;28.67;;;12.60;;
43857;SDS011;29507;51.284;5.758;2022-10-31T04:11:47;27.38;;;11.73;;
43857;SDS011;29507;51.284;5.758;2022-10-31T04:14:16;27.13;;;11.73;;
43857;SDS011;29507;51.284;5.758;2022-10-31T04:16:42;30.92;;;12.07;;
43857;SDS011;29507;51.284;5.758;2022-10-31T04:19:09;27.92;;;13.00;;
43857;SDS011;29507;51.284;5.758;2022-10-31T04:21:36;33.67;;;13.93;;
43857;SDS011;29507;51.284;5.758;2022-10-31T04:24:02;37.22;;;15.05;;
43857;SDS011;29507;51.284;5.758;2022-10-31T04:26:28;27.20;;;12.73;;
43857;SDS011;29507;51.284;5.758;2022-10-31T04:28:54;39.20;;;13.77;;
43857;SDS011;29507;51.284;5.758;2022-10-31T04:31:20;32.90;;;13.70;;
43857;SDS011;29507;51.284;5.758;2022-10-31T04:33:48;35.35;;;12.73;;
43857;SDS011;29507;51.284;5.758;2022-10-31T04:36:17;30.52;;;14.00;;
43857;SDS011;29507;51.284;5.758;2022-10-31T04:38:50;40.65;;;13.68;;
43857;SDS011;29507;51.284;5.758;2022-10-31T04:41:16;29.17;;;14.02;;
43857;SDS011;29507;51.284;5.758;2022-10-31T04:43:42;29.95;;;11.70;;
43857;SDS011;29507;51.284;5.758;2022-10-31T04:46:07;24.58;;;12.00;;
43857;SDS011;29507;51.284;5.758;2022-10-31T04:48:33;24.38;;;11.05;;
43857;SDS011;29507;51.284;5.758;2022-10-31T04:50:59;18.65;;;9.50;;
43857;SDS011;29507;51.284;5.758;2022-10-31T04:53:26;22.25;;;11.30;;
43857;SDS011;29507;51.284;5.758;2022-10-31T04:55:52;25.40;;;11.32;;
43857;SDS011;29507;51.284;5.758;2022-10-31T04:58:18;24.02;;;12.30;;
43857;SDS011;29507;51.284;5.758;2022-10-31T05:00:43;24.80;;;11.95;;
43857;SDS011;29507;51.284;5.758;2022-10-31T05:03:09;28.25;;;10.93;;
43857;SDS011;29507;51.284;5.758;2022-10-31T05:05:34;25.40;;;11.52;;
43857;SDS011;29507;51.284;5.758;2022-10-31T05:08:00;32.53;;;12.82;;
43857;SDS011;29507;51.284;5.758;2022-10-31T05:10:27;28.90;;;11.73;;
43857;SDS011;29507;51.284;5.758;2022-10-31T05:12:54;25.13;;;11.52;;
43857;SDS011;29507;51.284;5.758;2022-10-31T05:15:25;29.60;;;12.45;;
43857;SDS011;29507;51.284;5.758;2022-10-31T05:17:52;30.60;;;12.93;;
43857;SDS011;29507;51.284;5.758;2022-10-31T05:20:19;24.00;;;11.48;;
43857;SDS011;29507;51.284;5.758;2022-10-31T05:22:46;28.10;;;12.10;;
43857;SDS011;29507;51.284;5.758;2022-10-31T05:25:14;34.83;;;11.57;;
43857;SDS011;29507;51.284;5.758;2022-10-31T05:27:41;27.75;;;10.48;;
43857;SDS011;29507;51.284;5.758;2022-10-31T05:30:08;25.85;;;12.25;;
43857;SDS011;29507;51.284;5.758;2022-10-31T05:32:38;25.45;;;11.55;;
43857;SDS011;29507;51.284;5.758;2022-10-31T05:35:05;26.88;;;10.40;;
43857;SDS011;29507;51.284;5.758;2022-10-31T05:37:33;28.07;;;12.73;;
43857;SDS011;29507;51.284;5.758;2022-10-31T05:39:59;38.42;;;13.90;;
43857;SDS011;29507;51.284;5.758;2022-10-31T05:42:25;29.30;;;11.90;;
43857;SDS011;29507;51.284;5.758;2022-10-31T05:44:51;36.25;;;12.93;;
43857;SDS011;29507;51.284;5.758;2022-10-31T05:47:16;24.67;;;10.45;;
43857;SDS011;29507;51.284;5.758;2022-10-31T05:49:42;26.98;;;10.90;;
43857;SDS011;29507;51.284;5.758;2022-10-31T05:52:07;26.38;;;10.75;;
43857;SDS011;29507;51.284;5.758;2022-10-31T05:54:33;19.83;;;10.30;;
43857;SDS011;29507;51.284;5.758;2022-10-31T05:56:59;24.38;;;10.60;;
43857;SDS011;29507;51.284;5.758;2022-10-31T05:59:24;23.67;;;11.43;;
43857;SDS011;29507;51.284;5.758;2022-10-31T06:01:50;30.20;;;12.15;;
43857;SDS011;29507;51.284;5.758;2022-10-31T06:04:15;27.08;;;11.25;;
43857;SDS011;29507;51.284;5.758;2022-10-31T06:06:41;25.15;;;11.18;;
43857;SDS011;29507;51.284;5.758;2022-10-31T06:09:06;27.42;;;11.75;;
43857;SDS011;29507;51.284;5.758;2022-10-31T06:11:32;23.17;;;11.93;;
43857;SDS011;29507;51.284;5.758;2022-10-31T06:13:58;25.10;;;10.15;;
43857;SDS011;29507;51.284;5.758;2022-10-31T06:16:23;29.70;;;11.82;;
43857;SDS011;29507;51.284;5.758;2022-10-31T06:18:49;27.25;;;12.60;;
43857;SDS011;29507;51.284;5.758;2022-10-31T06:21:15;29.58;;;12.18;;
43857;SDS011;29507;51.284;5.758;2022-10-31T06:23:40;37.70;;;12.25;;
43857;SDS011;29507;51.284;5.758;2022-10-31T06:26:06;39.30;;;12.52;;
43857;SDS011;29507;51.284;5.758;2022-10-31T06:28:31;25.30;;;11.82;;
43857;SDS011;29507;51.284;5.758;2022-10-31T06:30:57;32.58;;;11.65;;
43857;SDS011;29507;51.284;5.758;2022-10-31T06:33:23;28.90;;;11.88;;
43857;SDS011;29507;51.284;5.758;2022-10-31T06:35:48;22.65;;;10.55;;
43857;SDS011;29507;51.284;5.758;2022-10-31T06:38:14;23.65;;;10.82;;
43857;SDS011;29507;51.284;5.758;2022-10-31T06:40:40;23.92;;;11.55;;
43857;SDS011;29507;51.284;5.758;2022-10-31T06:43:05;28.05;;;11.13;;
43857;SDS011;29507;51.284;5.758;2022-10-31T06:45:31;26.35;;;11.27;;
43857;SDS011;29507;51.284;5.758;2022-10-31T06:47:57;25.48;;;10.95;;
43857;SDS011;29507;51.284;5.758;2022-10-31T06:50:22;26.95;;;11.45;;
43857;SDS011;29507;51.284;5.758;2022-10-31T06:52:55;22.58;;;10.52;;
43857;SDS011;29507;51.284;5.758;2022-10-31T06:55:23;20.88;;;9.60;;
43857;SDS011;29507;51.284;5.758;2022-10-31T06:57:50;25.95;;;10.48;;
43857;SDS011;29507;51.284;5.758;2022-10-31T07:00:16;21.27;;;9.82;;
43857;SDS011;29507;51.284;5.758;2022-10-31T07:02:42;25.30;;;11.30;;
43857;SDS011;29507;51.284;5.758;2022-10-31T07:05:08;27.17;;;11.75;;
43857;SDS011;29507;51.284;5.758;2022-10-31T07:07:34;26.25;;;11.45;;
43857;SDS011;29507;51.284;5.758;2022-10-31T07:09:59;28.33;;;12.02;;
43857;SDS011;29507;51.284;5.758;2022-10-31T07:12:25;35.10;;;12.68;;
43857;SDS011;29507;51.284;5.758;2022-10-31T07:14:51;30.95;;;13.90;;
43857;SDS011;29507;51.284;5.758;2022-10-31T07:17:16;36.95;;;13.23;;
43857;SDS011;29507;51.284;5.758;2022-10-31T07:19:42;36.63;;;13.13;;
43857;SDS011;29507;51.284;5.758;2022-10-31T07:22:08;34.15;;;13.45;;
43857;SDS011;29507;51.284;5.758;2022-10-31T07:24:33;33.90;;;12.80;;
43857;SDS011;29507;51.284;5.758;2022-10-31T07:26:59;35.70;;;13.90;;
43857;SDS011;29507;51.284;5.758;2022-10-31T07:29:24;33.65;;;12.88;;
43857;SDS011;29507;51.284;5.758;2022-10-31T07:31:50;46.50;;;15.60;;
43857;SDS011;29507;51.284;5.758;2022-10-31T07:34:16;38.05;;;14.75;;
43857;SDS011;29507;51.284;5.758;2022-10-31T07:36:42;41.17;;;14.90;;
43857;SDS011;29507;51.284;5.758;2022-10-31T07:39:08;39.85;;;15.25;;
43857;SDS011;29507;51.284;5.758;2022-10-31T07:41:33;49.10;;;15.30;;
43857;SDS011;29507;51.284;5.758;2022-10-31T07:43:59;50.08;;;16.98;;
43857;SDS011;29507;51.284;5.758;2022-10-31T07:46:25;48.50;;;16.45;;
43857;SDS011;29507;51.284;5.758;2022-10-31T07:48:50;57.92;;;18.98;;
43857;SDS011;29507;51.284;5.758;2022-10-31T07:51:16;56.72;;;18.40;;
43857;SDS011;29507;51.284;5.758;2022-10-31T07:53:42;54.53;;;16.95;;
43857;SDS011;29507;51.284;5.758;2022-10-31T07:56:08;57.38;;;17.85;;
43857;SDS011;29507;51.284;5.758;2022-10-31T07:58:33;53.60;;;19.15;;
43857;SDS011;29507;51.284;5.758;2022-10-31T08:00:59;52.10;;;18.50;;
43857;SDS011;29507;51.284;5.758;2022-10-31T08:03:25;63.53;;;20.98;;
43857;SDS011;29507;51.284;5.758;2022-10-31T08:05:50;47.70;;;17.80;;
43857;SDS011;29507;51.284;5.758;2022-10-31T08:08:16;54.58;;;17.60;;
43857;SDS011;29507;51.284;5.758;2022-10-31T08:10:42;60.05;;;18.77;;
43857;SDS011;29507;51.284;5.758;2022-10-31T08:13:09;56.35;;;19.70;;
43857;SDS011;29507;51.284;5.758;2022-10-31T08:15:36;57.50;;;19.05;;
43857;SDS011;29507;51.284;5.758;2022-10-31T08:18:13;47.13;;;17.50;;
43857;SDS011;29507;51.284;5.758;2022-10-31T08:20:40;46.65;;;17.58;;
43857;SDS011;29507;51.284;5.758;2022-10-31T08:23:07;48.45;;;19.08;;
43857;SDS011;29507;51.284;5.758;2022-10-31T08:25:37;47.25;;;18.33;;
43857;SDS011;29507;51.284;5.758;2022-10-31T08:28:03;45.20;;;17.17;;
43857;SDS011;29507;51.284;5.758;2022-10-31T08:30:30;56.22;;;19.13;;
43857;SDS011;29507;51.284;5.758;2022-10-31T08:32:58;53.28;;;18.25;;
43857;SDS011;29507;51.284;5.758;2022-10-31T08:35:27;48.65;;;17.40;;
43857;SDS011;29507;51.284;5.758;2022-10-31T08:37:53;45.22;;;18.55;;
43857;SDS011;29507;51.284;5.758;2022-10-31T08:40:20;52.45;;;17.67;;
43857;SDS011;29507;51.284;5.758;2022-10-31T08:42:46;55.40;;;19.63;;
43857;SDS011;29507;51.284;5.758;2022-10-31T08:45:11;56.97;;;19.33;;
43857;SDS011;29507;51.284;5.758;2022-10-31T08:47:37;63.53;;;20.75;;
43857;SDS011;29507;51.284;5.758;2022-10-31T08:50:03;62.15;;;21.05;;
43857;SDS011;29507;51.284;5.758;2022-10-31T08:52:29;53.97;;;19.65;;
43857;SDS011;29507;51.284;5.758;2022-10-31T08:54:55;51.33;;;20.38;;
43857;SDS011;29507;51.284;5.758;2022-10-31T08:57:20;59.42;;;19.90;;
43857;SDS011;29507;51.284;5.758;2022-10-31T08:59:46;57.35;;;19.63;;
43857;SDS011;29507;51.284;5.758;2022-10-31T09:02:12;57.65;;;20.55;;
43857;SDS011;29507;51.284;5.758;2022-10-31T09:04:37;47.42;;;19.80;;
43857;SDS011;29507;51.284;5.758;2022-10-31T09:07:03;41.00;;;18.63;;
43857;SDS011;29507;51.284;5.758;2022-10-31T09:09:29;42.65;;;18.38;;
43857;SDS011;29507;51.284;5.758;2022-10-31T09:11:54;43.30;;;18.30;;
43857;SDS011;29507;51.284;5.758;2022-10-31T09:14:20;36.67;;;18.25;;
43857;SDS011;29507;51.284;5.758;2022-10-31T09:16:45;46.65;;;18.10;;
43857;SDS011;29507;51.284;5.758;2022-10-31T09:19:11;42.92;;;18.63;;
43857;SDS011;29507;51.284;5.758;2022-10-31T09:21:37;45.45;;;18.77;;
43857;SDS011;29507;51.284;5.758;2022-10-31T09:24:03;36.90;;;17.23;;
43857;SDS011;29507;51.284;5.758;2022-10-31T09:26:28;39.00;;;18.42;;
43857;SDS011;29507;51.284;5.758;2022-10-31T09:28:55;41.20;;;17.23;;
43857;SDS011;29507;51.284;5.758;2022-10-31T09:31:22;39.33;;;16.90;;
43857;SDS011;29507;51.284;5.758;2022-10-31T09:33:48;35.33;;;16.30;;
43857;SDS011;29507;51.284;5.758;2022-10-31T09:36:14;31.30;;;15.95;;
43857;SDS011;29507;51.284;5.758;2022-10-31T09:38:39;33.00;;;16.00;;
43857;SDS011;29507;51.284;5.758;2022-10-31T09:44:12;35.20;;;16.15;;
43857;SDS011;29507;51.284;5.758;2022-10-31T09:50:02;29.93;;;16.00;;
43857;SDS011;29507;51.284;5.758;2022-10-31T09:52:33;36.58;;;16.30;;
43857;SDS011;29507;51.284;5.758;2022-10-31T09:55:05;37.10;;;17.15;;
43857;SDS011;29507;51.284;5.758;2022-10-31T09:57:39;36.25;;;18.23;;
43857;SDS011;29507;51.284;5.758;2022-10-31T10:00:07;34.53;;;16.20;;
43857;SDS011;29507;51.284;5.758;2022-10-31T10:02:50;32.95;;;15.90;;
43857;SDS011;29507;51.284;5.758;2022-10-31T10:05:22;28.35;;;14.80;;
43857;SDS011;29507;51.284;5.758;2022-10-31T10:08:03;34.90;;;15.60;;
43857;SDS011;29507;51.284;5.758;2022-10-31T10:10:49;33.42;;;15.85;;
43857;SDS011;29507;51.284;5.758;2022-10-31T10:13:45;34.30;;;14.93;;
43857;SDS011;29507;51.284;5.758;2022-10-31T10:30:41;28.50;;;13.70;;
43857;SDS011;29507;51.284;5.758;2022-10-31T10:36:20;27.65;;;12.63;;
43857;SDS011;29507;51.284;5.758;2022-10-31T10:38:59;21.10;;;11.75;;
43857;SDS011;29507;51.284;5.758;2022-10-31T10:41:32;23.58;;;11.80;;
43857;SDS011;29507;51.284;5.758;2022-10-31T10:43:58;24.45;;;13.93;;
43857;SDS011;29507;51.284;5.758;2022-10-31T10:46:30;29.90;;;14.50;;
43857;SDS011;29507;51.284;5.758;2022-10-31T10:49:38;26.80;;;13.20;;
43857;SDS011;29507;51.284;5.758;2022-10-31T10:52:11;29.20;;;13.05;;
43857;SDS011;29507;51.284;5.758;2022-10-31T10:55:03;24.45;;;12.02;;
43857;SDS011;29507;51.284;5.758;2022-10-31T10:57:53;29.25;;;13.40;;
43857;SDS011;29507;51.284;5.758;2022-10-31T11:03:06;27.27;;;12.70;;
43857;SDS011;29507;51.284;5.758;2022-10-31T11:05:36;35.03;;;13.70;;
43857;SDS011;29507;51.284;5.758;2022-10-31T11:11:05;28.63;;;12.82;;
43857;SDS011;29507;51.284;5.758;2022-10-31T11:13:45;25.13;;;11.77;;
43857;SDS011;29507;51.284;5.758;2022-10-31T11:16:35;29.25;;;12.45;;
43857;SDS011;29507;51.284;5.758;2022-10-31T11:21:39;30.80;;;11.93;;
43857;SDS011;29507;51.284;5.758;2022-10-31T11:26:34;23.85;;;10.82;;
43857;SDS011;29507;51.284;5.758;2022-10-31T11:29:03;20.23;;;11.50;;
43857;SDS011;29507;51.284;5.758;2022-10-31T11:31:30;22.98;;;11.18;;
43857;SDS011;29507;51.284;5.758;2022-10-31T11:33:59;25.10;;;11.05;;
43857;SDS011;29507;51.284;5.758;2022-10-31T11:36:29;24.45;;;11.32;;
43857;SDS011;29507;51.284;5.758;2022-10-31T11:41:27;20.75;;;10.00;;
43857;SDS011;29507;51.284;5.758;2022-10-31T11:43:59;26.13;;;9.63;;
43857;SDS011;29507;51.284;5.758;2022-10-31T11:46:33;19.27;;;10.15;;
43857;SDS011;29507;51.284;5.758;2022-10-31T11:49:04;17.73;;;9.60;;
43857;SDS011;29507;51.284;5.758;2022-10-31T11:51:36;23.08;;;10.02;;
43857;SDS011;29507;51.284;5.758;2022-10-31T11:54:04;20.38;;;9.23;;
43857;SDS011;29507;51.284;5.758;2022-10-31T11:56:41;27.13;;;9.90;;
43857;SDS011;29507;51.284;5.758;2022-10-31T11:59:24;22.77;;;9.75;;
43857;SDS011;29507;51.284;5.758;2022-10-31T12:01:51;16.55;;;8.50;;
43857;SDS011;29507;51.284;5.758;2022-10-31T12:04:22;26.27;;;10.02;;
43857;SDS011;29507;51.284;5.758;2022-10-31T12:06:58;19.02;;;9.13;;
43857;SDS011;29507;51.284;5.758;2022-10-31T12:09:28;21.73;;;9.40;;
43857;SDS011;29507;51.284;5.758;2022-10-31T12:14:33;18.48;;;8.43;;
43857;SDS011;29507;51.284;5.758;2022-10-31T12:17:26;20.83;;;10.02;;
43857;SDS011;29507;51.284;5.758;2022-10-31T12:31:13;20.30;;;7.78;;
43857;SDS011;29507;51.284;5.758;2022-10-31T12:40:33;15.73;;;8.05;;
43857;SDS011;29507;51.284;5.758;2022-10-31T12:43:34;21.27;;;8.88;;
43857;SDS011;29507;51.284;5.758;2022-10-31T12:54:36;21.80;;;8.88;;
43857;SDS011;29507;51.284;5.758;2022-10-31T13:00:00;19.42;;;9.20;;
43857;SDS011;29507;51.284;5.758;2022-10-31T13:02:54;17.33;;;8.43;;
43857;SDS011;29507;51.284;5.758;2022-10-31T13:05:33;19.63;;;8.32;;
43857;SDS011;29507;51.284;5.758;2022-10-31T13:10:52;23.27;;;9.98;;
43857;SDS011;29507;51.284;5.758;2022-10-31T13:16:31;21.40;;;9.05;;
43857;SDS011;29507;51.284;5.758;2022-10-31T13:22:05;21.38;;;9.40;;
43857;SDS011;29507;51.284;5.758;2022-10-31T13:24:38;22.08;;;9.23;;
43857;SDS011;29507;51.284;5.758;2022-10-31T13:30:18;21.00;;;8.90;;
43857;SDS011;29507;51.284;5.758;2022-10-31T13:35:26;18.23;;;8.50;;
43857;SDS011;29507;51.284;5.758;2022-10-31T13:46:44;16.33;;;7.35;;
43857;SDS011;29507;51.284;5.758;2022-10-31T13:49:24;14.68;;;7.63;;
43857;SDS011;29507;51.284;5.758;2022-10-31T13:52:16;17.80;;;6.55;;
43857;SDS011;29507;51.284;5.758;2022-10-31T13:57:06;15.85;;;7.35;;
43857;SDS011;29507;51.284;5.758;2022-10-31T13:59:45;18.17;;;7.55;;
43857;SDS011;29507;51.284;5.758;2022-10-31T14:02:29;14.63;;;6.60;;
43857;SDS011;29507;51.284;5.758;2022-10-31T14:04:58;14.55;;;5.80;;
43857;SDS011;29507;51.284;5.758;2022-10-31T14:07:27;21.40;;;7.05;;
43857;SDS011;29507;51.284;5.758;2022-10-31T14:10:05;20.63;;;7.93;;
43857;SDS011;29507;51.284;5.758;2022-10-31T14:12:45;13.45;;;6.50;;
43857;SDS011;29507;51.284;5.758;2022-10-31T14:20:36;13.30;;;6.07;;
43857;SDS011;29507;51.284;5.758;2022-10-31T14:23:24;17.08;;;5.95;;
43857;SDS011;29507;51.284;5.758;2022-10-31T14:28:41;10.60;;;4.65;;
43857;SDS011;29507;51.284;5.758;2022-10-31T14:34:18;14.50;;;6.15;;
43857;SDS011;29507;51.284;5.758;2022-10-31T14:47:28;12.45;;;5.30;;
43857;SDS011;29507;51.284;5.758;2022-10-31T14:52:57;12.18;;;5.28;;
43857;SDS011;29507;51.284;5.758;2022-10-31T14:55:27;13.18;;;5.43;;
43857;SDS011;29507;51.284;5.758;2022-10-31T14:58:00;11.20;;;4.75;;
43857;SDS011;29507;51.284;5.758;2022-10-31T15:00:28;20.23;;;5.28;;
43857;SDS011;29507;51.284;5.758;2022-10-31T15:06:05;17.33;;;5.43;;
43857;SDS011;29507;51.284;5.758;2022-10-31T15:08:40;11.80;;;4.90;;
43857;SDS011;29507;51.284;5.758;2022-10-31T15:11:11;9.73;;;4.75;;
43857;SDS011;29507;51.284;5.758;2022-10-31T15:13:51;12.65;;;4.20;;
43857;SDS011;29507;51.284;5.758;2022-10-31T15:16:19;7.70;;;4.20;;
43857;SDS011;29507;51.284;5.758;2022-10-31T15:18:57;11.60;;;5.00;;
43857;SDS011;29507;51.284;5.758;2022-10-31T15:21:26;9.82;;;4.40;;
43857;SDS011;29507;51.284;5.758;2022-10-31T15:23:53;17.95;;;5.15;;
43857;SDS011;29507;51.284;5.758;2022-10-31T15:26:31;9.02;;;3.88;;
43857;SDS011;29507;51.284;5.758;2022-10-31T15:29:01;10.13;;;4.45;;
43857;SDS011;29507;51.284;5.758;2022-10-31T15:31:36;14.13;;;4.07;;
43857;SDS011;29507;51.284;5.758;2022-10-31T15:34:19;13.38;;;4.22;;
43857;SDS011;29507;51.284;5.758;2022-10-31T15:37:16;10.32;;;3.97;;
43857;SDS011;29507;51.284;5.758;2022-10-31T15:39:44;8.57;;;3.47;;
43857;SDS011;29507;51.284;5.758;2022-10-31T15:42:18;12.57;;;5.00;;
43857;SDS011;29507;51.284;5.758;2022-10-31T15:44:44;12.68;;;4.72;;
43857;SDS011;29507;51.284;5.758;2022-10-31T15:47:18;12.02;;;3.88;;
43857;SDS011;29507;51.284;5.758;2022-10-31T15:49:50;7.25;;;3.55;;
43857;SDS011;29507;51.284;5.758;2022-10-31T15:52:41;18.45;;;4.50;;
43857;SDS011;29507;51.284;5.758;2022-10-31T15:57:38;14.88;;;3.53;;
43857;SDS011;29507;51.284;5.758;2022-10-31T16:00:20;10.57;;;3.90;;
43857;SDS011;29507;51.284;5.758;2022-10-31T16:03:03;14.80;;;3.67;;
43857;SDS011;29507;51.284;5.758;2022-10-31T16:05:34;11.43;;;4.23;;
43857;SDS011;29507;51.284;5.758;2022-10-31T16:10:55;10.90;;;4.38;;
43857;SDS011;29507;51.284;5.758;2022-10-31T16:13:23;13.23;;;4.80;;
43857;SDS011;29507;51.284;5.758;2022-10-31T16:15:54;14.15;;;3.85;;
43857;SDS011;29507;51.284;5.758;2022-10-31T16:18:22;11.82;;;4.75;;
43857;SDS011;29507;51.284;5.758;2022-10-31T16:20:50;11.48;;;4.50;;
43857;SDS011;29507;51.284;5.758;2022-10-31T16:23:17;12.20;;;4.35;;
43857;SDS011;29507;51.284;5.758;2022-10-31T16:25:45;10.68;;;4.10;;
43857;SDS011;29507;51.284;5.758;2022-10-31T16:28:21;11.30;;;4.03;;
43857;SDS011;29507;51.284;5.758;2022-10-31T16:30:51;9.35;;;4.35;;
43857;SDS011;29507;51.284;5.758;2022-10-31T16:33:22;11.80;;;3.53;;
43857;SDS011;29507;51.284;5.758;2022-10-31T16:35:49;8.13;;;3.67;;
43857;SDS011;29507;51.284;5.758;2022-10-31T16:38:14;18.05;;;4.38;;
43857;SDS011;29507;51.284;5.758;2022-10-31T16:40:40;8.98;;;3.63;;
43857;SDS011;29507;51.284;5.758;2022-10-31T16:43:10;16.88;;;4.47;;
43857;SDS011;29507;51.284;5.758;2022-10-31T16:45:42;16.48;;;4.18;;
43857;SDS011;29507;51.284;5.758;2022-10-31T16:48:12;7.97;;;3.55;;
43857;SDS011;29507;51.284;5.758;2022-10-31T16:50:46;15.57;;;4.65;;
43857;SDS011;29507;51.284;5.758;2022-10-31T16:53:14;12.80;;;4.03;;
43857;SDS011;29507;51.284;5.758;2022-10-31T16:55:42;14.88;;;4.25;;
43857;SDS011;29507;51.284;5.758;2022-10-31T16:58:17;7.22;;;3.38;;
43857;SDS011;29507;51.284;5.758;2022-10-31T17:00:47;13.05;;;3.97;;
43857;SDS011;29507;51.284;5.758;2022-10-31T17:03:13;8.10;;;3.45;;
43857;SDS011;29507;51.284;5.758;2022-10-31T17:05:39;11.13;;;4.28;;
43857;SDS011;29507;51.284;5.758;2022-10-31T17:08:05;11.88;;;4.32;;
43857;SDS011;29507;51.284;5.758;2022-10-31T17:10:30;9.02;;;3.83;;
43857;SDS011;29507;51.284;5.758;2022-10-31T17:12:56;8.98;;;4.15;;
43857;SDS011;29507;51.284;5.758;2022-10-31T17:15:24;9.55;;;3.90;;
43857;SDS011;29507;51.284;5.758;2022-10-31T17:17:56;9.23;;;4.05;;
43857;SDS011;29507;51.284;5.758;2022-10-31T17:20:26;11.68;;;3.85;;
43857;SDS011;29507;51.284;5.758;2022-10-31T17:22:53;9.65;;;3.80;;